Bitola, Macedonia
Current Conditions -  °F | °C
As of 4:00 PM on Thursday 23 Oct 2014 (Local Time) from LWOH Reporting Station
Broken Clouds Broken Clouds  
Wind Chill:   Ceiling: 4000
Heat Index:   Visibility: 6mi
Dew Point:   Wind: 10mph
Humidity: 62%   Direction: 190°S
Pressure: 29.62"   Gusts: NA
Location:  41.04°N, 21.34°E
Report Text: LWOH 231400Z 19009KT 9999 FEW020 BKN040 09/02 Q1003
Loading
Personal Weather Stations






























Interactive Weather Map
Tropical Storm Tracking
New forecast layout! Learn more

10-Day Weather Forecast

Advertisements
Track Severe Weather on mobile